Time;durP1;ratioP1;P1;durP2;ratioP2;P2;SDS_P1;SDS_P2;PMS_P1;PMS_P2;Temp;Humidity;BMP_temperature;BMP_pressure;BME280_temperature;BME280_humidity;BME280_pressure;Samples;Min_cycle;Max_cycle;Signal;HPM_P1;HPM_P2
2023/05/23 00:01:36;;;;;;;19.13;7.72;;;24.00;79.00;;;;;;4985963;28;20077;-53
2023/05/23 00:04:02;;;;;;;14.65;6.72;;;24.00;79.00;;;;;;4984637;28;20022;-53
2023/05/23 00:06:28;;;;;;;14.02;6.22;;;23.90;79.00;;;;;;4984932;28;20034;-53
2023/05/23 00:08:54;;;;;;;18.73;6.97;;;23.90;79.10;;;;;;4984490;28;20035;-53
2023/05/23 00:11:25;;;;;;;18.05;6.72;;;23.90;79.10;;;;;;4984514;28;20027;-53
2023/05/23 00:13:51;;;;;;;14.05;6.38;;;23.90;79.20;;;;;;4984596;28;20085;-53
2023/05/23 00:16:17;;;;;;;12.65;6.32;;;23.80;79.20;;;;;;4984773;28;20035;-53
2023/05/23 00:18:44;;;;;;;11.80;6.57;;;23.80;79.20;;;;;;4985175;28;20095;-53
2023/05/23 00:21:10;;;;;;;16.55;6.65;;;23.80;79.30;;;;;;5017099;28;20038;-53
2023/05/23 00:23:37;;;;;;;14.52;6.70;;;23.80;79.30;;;;;;4984842;28;20034;-53
2023/05/23 00:26:02;;;;;;;14.00;6.13;;;23.70;79.30;;;;;;4968361;28;20480;-53
2023/05/23 00:28:28;;;;;;;18.67;6.32;;;23.70;79.50;;;;;;4985573;28;20070;-53
2023/05/23 00:30:53;;;;;;;9.90;5.78;;;23.70;79.50;;;;;;4967833;28;20022;-53
2023/05/23 00:33:20;;;;;;;15.38;6.20;;;23.70;79.50;;;;;;4983790;28;20448;-53
2023/05/23 00:35:47;;;;;;;14.70;6.68;;;23.60;79.50;;;;;;4983961;28;20091;-53
2023/05/23 00:38:13;;;;;;;10.07;5.47;;;23.60;79.60;;;;;;4985336;28;20082;-53
2023/05/23 00:40:38;;;;;;;13.23;6.38;;;23.60;79.70;;;;;;4983744;28;20030;-54
2023/05/23 00:43:04;;;;;;;12.23;6.50;;;23.60;79.80;;;;;;4985116;28;20038;-53
2023/05/23 00:45:30;;;;;;;9.05;5.72;;;23.50;80.00;;;;;;4985443;28;20030;-53
2023/05/23 00:47:55;;;;;;;11.90;6.13;;;23.50;80.00;;;;;;4985887;28;20087;-53
2023/05/23 00:50:21;;;;;;;9.85;6.55;;;23.50;80.00;;;;;;4984835;28;20073;-53
2023/05/23 00:52:47;;;;;;;12.82;6.30;;;23.50;80.10;;;;;;4984238;28;20030;-53
2023/05/23 00:55:13;;;;;;;10.43;6.05;;;23.40;80.20;;;;;;4983057;28;20041;-53
2023/05/23 00:57:39;;;;;;;11.27;6.03;;;23.40;80.30;;;;;;4984128;28;20042;-53
2023/05/23 01:00:11;;;;;;;14.25;6.03;;;23.40;80.40;;;;;;4984454;28;20061;-53
2023/05/23 01:02:46;;;;;;;9.25;5.80;;;23.40;80.40;;;;;;4985567;28;20119;-53
2023/05/23 01:05:16;;;;;;;8.68;5.65;;;23.30;81.00;;;;;;4982393;28;20027;-53
2023/05/23 01:07:42;;;;;;;9.75;5.90;;;23.30;80.50;;;;;;4985113;28;20395;-53
2023/05/23 01:10:08;;;;;;;10.77;5.95;;;23.30;80.60;;;;;;4984118;28;20031;-53
2023/05/23 01:12:45;;;;;;;11.38;5.80;;;23.30;80.70;;;;;;4967224;28;20043;-53
2023/05/23 01:15:18;;;;;;;8.75;5.90;;;23.20;80.80;;;;;;4976586;28;20540;-53
2023/05/23 01:17:49;;;;;;;10.00;5.95;;;23.20;80.90;;;;;;4948915;29;20035;-53
2023/05/23 01:20:27;;;;;;;10.43;5.50;;;23.20;80.90;;;;;;4958574;28;20023;-53
2023/05/23 01:22:59;;;;;;;15.70;6.25;;;23.10;80.90;;;;;;4964950;29;20043;-53
2023/05/23 01:25:58;;;;;;;9.65;6.05;;;23.10;81.00;;;;;;4966368;28;20083;-53
2023/05/23 01:28:25;;;;;;;8.15;5.80;;;23.10;81.10;;;;;;4965059;28;20045;-53
2023/05/23 01:30:51;;;;;;;13.93;6.07;;;23.00;81.10;;;;;;4966144;28;20031;-53
2023/05/23 01:33:17;;;;;;;11.15;5.93;;;23.00;81.20;;;;;;4983956;28;20023;-53
2023/05/23 01:35:42;;;;;;;11.95;5.20;;;23.00;81.20;;;;;;4984181;28;20051;-53
2023/05/23 01:38:08;;;;;;;7.75;5.55;;;23.00;81.30;;;;;;4983981;28;20031;-53
2023/05/23 01:40:33;;;;;;;11.80;5.72;;;22.90;81.40;;;;;;4984408;28;20054;-53
2023/05/23 01:42:59;;;;;;;9.50;5.28;;;22.90;81.50;;;;;;4985613;28;20053;-53
2023/05/23 01:45:25;;;;;;;8.80;5.70;;;22.90;81.50;;;;;;4984142;28;20464;-54
2023/05/23 01:47:51;;;;;;;12.45;5.15;;;22.90;81.60;;;;;;4983826;28;20125;-53
2023/05/23 01:50:17;;;;;;;6.40;5.00;;;22.80;81.60;;;;;;4970798;28;20482;-53
2023/05/23 01:52:42;;;;;;;6.90;5.88;;;22.90;81.70;;;;;;4987552;28;20102;-53
2023/05/23 01:55:10;;;;;;;8.00;5.03;;;22.80;81.60;;;;;;4987635;28;20037;-53
2023/05/23 01:57:39;;;;;;;7.32;5.28;;;22.80;81.70;;;;;;4986421;28;20116;-53
2023/05/23 02:00:11;;;;;;;8.52;6.03;;;22.80;81.80;;;;;;4968529;28;20027;-53
2023/05/23 02:02:36;;;;;;;5.72;5.15;;;22.80;81.90;;;;;;4970122;28;20022;-53
2023/05/23 02:05:02;;;;;;;8.48;5.47;;;22.70;82.00;;;;;;4987103;28;20363;-53
2023/05/23 02:07:27;;;;;;;9.40;6.20;;;22.70;82.00;;;;;;4988495;28;20065;-53
2023/05/23 02:09:53;;;;;;;9.25;6.22;;;22.70;82.10;;;;;;4985960;28;20046;-53
2023/05/23 02:12:19;;;;;;;6.75;5.85;;;22.70;82.20;;;;;;4987186;28;20030;-53
2023/05/23 02:14:44;;;;;;;6.70;6.00;;;22.60;82.20;;;;;;4987256;28;20018;-53
2023/05/23 02:17:10;;;;;;;7.68;5.97;;;22.60;82.30;;;;;;4987943;28;20507;-53
2023/05/23 02:19:36;;;;;;;10.27;6.10;;;22.60;82.30;;;;;;4987569;28;20022;-53
2023/05/23 02:22:02;;;;;;;6.20;5.60;;;22.60;82.50;;;;;;4985681;28;20027;-53
2023/05/23 02:24:27;;;;;;;8.75;6.53;;;22.60;82.50;;;;;;5003387;28;20027;-53
2023/05/23 02:26:53;;;;;;;7.75;6.50;;;22.60;82.50;;;;;;5019048;28;20034;-53
2023/05/23 02:29:18;;;;;;;8.18;6.10;;;22.50;82.50;;;;;;4987655;28;20034;-53
2023/05/23 02:31:44;;;;;;;7.97;5.60;;;22.50;82.60;;;;;;4987668;28;20049;-53
2023/05/23 02:34:10;;;;;;;6.07;5.47;;;22.50;82.70;;;;;;4986361;28;20038;-53
2023/05/23 02:36:35;;;;;;;7.97;5.95;;;22.50;82.80;;;;;;4987319;28;20050;-53
2023/05/23 02:39:04;;;;;;;7.95;5.95;;;22.40;83.00;;;;;;4967218;28;20034;-53
2023/05/23 02:41:30;;;;;;;14.65;6.22;;;22.40;82.90;;;;;;4975554;28;20054;-53
2023/05/23 02:43:56;;;;;;;8.15;6.15;;;22.40;83.00;;;;;;4986856;28;20507;-53
2023/05/23 02:46:21;;;;;;;8.07;6.55;;;22.40;83.10;;;;;;4986184;28;20027;-53
2023/05/23 02:48:47;;;;;;;7.20;6.35;;;22.40;83.20;;;;;;4987678;28;20058;-53
2023/05/23 02:51:13;;;;;;;9.07;6.75;;;22.30;83.10;;;;;;4987526;28;20080;-53
2023/05/23 02:53:38;;;;;;;6.85;6.18;;;22.30;83.10;;;;;;4986478;28;20094;-53
2023/05/23 02:56:04;;;;;;;8.10;5.93;;;22.30;83.20;;;;;;4985779;28;20445;-53
2023/05/23 02:58:30;;;;;;;6.72;6.03;;;22.30;83.20;;;;;;4986313;28;20033;-53
2023/05/23 03:00:56;;;;;;;8.77;6.25;;;22.30;83.30;;;;;;4986433;28;20051;-53
2023/05/23 03:03:22;;;;;;;8.32;6.85;;;22.30;83.40;;;;;;4987818;28;20399;-53
2023/05/23 03:05:47;;;;;;;12.25;7.78;;;22.20;83.40;;;;;;4986453;28;20380;-53
2023/05/23 03:08:13;;;;;;;13.35;8.25;;;22.20;83.50;;;;;;4987774;28;20345;-53
2023/05/23 03:10:38;;;;;;;11.38;7.65;;;22.20;83.60;;;;;;4987388;28;20066;-53
2023/05/23 03:13:04;;;;;;;11.60;7.78;;;22.20;83.70;;;;;;4986313;28;20031;-53
2023/05/23 03:15:29;;;;;;;10.38;8.07;;;22.20;83.80;;;;;;4985535;28;20139;-53
2023/05/23 03:17:55;;;;;;;12.52;8.32;;;22.20;83.90;;;;;;4981953;28;20115;-53
2023/05/23 03:20:21;;;;;;;12.25;8.63;;;22.10;83.90;;;;;;4968246;28;20149;-53
2023/05/23 03:22:47;;;;;;;8.95;7.57;;;22.10;84.00;;;;;;4985210;28;20150;-53
2023/05/23 03:25:14;;;;;;;14.10;7.68;;;22.10;84.00;;;;;;4985646;28;20091;-53
2023/05/23 03:27:39;;;;;;;9.90;7.57;;;22.10;84.10;;;;;;4985063;28;20046;-53
2023/05/23 03:30:05;;;;;;;11.40;7.80;;;22.00;84.00;;;;;;4986962;28;20027;-53
2023/05/23 03:32:31;;;;;;;13.75;8.38;;;22.00;84.00;;;;;;4984543;28;20063;-53
2023/05/23 03:34:56;;;;;;;9.63;7.95;;;22.00;84.10;;;;;;4985528;28;20050;-53
2023/05/23 03:37:22;;;;;;;14.73;7.88;;;22.00;84.10;;;;;;4985053;28;20031;-53
2023/05/23 03:39:47;;;;;;;10.55;8.43;;;22.00;84.20;;;;;;4985374;28;20118;-53
2023/05/23 03:42:13;;;;;;;13.40;8.05;;;21.90;84.20;;;;;;4986652;28;20090;-53
2023/05/23 03:44:39;;;;;;;20.40;9.48;;;21.90;84.20;;;;;;5002097;28;20107;-53
2023/05/23 03:47:04;;;;;;;25.33;9.80;;;21.90;84.30;;;;;;5017027;28;20026;-53
2023/05/23 03:49:30;;;;;;;19.58;10.13;;;21.90;84.40;;;;;;4968508;28;20134;-53
2023/05/23 03:51:55;;;;;;;20.13;9.50;;;21.90;84.40;;;;;;4985077;28;20074;-53
2023/05/23 03:54:21;;;;;;;21.52;9.30;;;21.80;85.10;;;;;;4985340;28;20089;-53
2023/05/23 03:56:46;;;;;;;17.52;9.48;;;21.90;84.50;;;;;;4984781;28;20058;-53
2023/05/23 03:59:12;;;;;;;17.95;9.40;;;21.80;84.50;;;;;;4984240;28;20030;-53
2023/05/23 04:01:38;;;;;;;23.27;9.43;;;21.80;84.50;;;;;;4970676;28;20043;-53
2023/05/23 04:04:04;;;;;;;22.30;10.20;;;21.80;84.60;;;;;;4969200;28;20030;-53
2023/05/23 04:06:30;;;;;;;26.15;9.65;;;21.80;84.60;;;;;;4984639;28;20121;-53
2023/05/23 04:08:56;;;;;;;26.83;10.02;;;21.80;84.70;;;;;;4985278;28;20039;-53
2023/05/23 04:11:22;;;;;;;26.55;10.75;;;21.80;84.80;;;;;;4983762;28;20123;-53
2023/05/23 04:13:48;;;;;;;25.83;10.85;;;21.80;84.80;;;;;;4985185;28;20034;-53
2023/05/23 04:16:13;;;;;;;31.10;10.07;;;21.80;84.70;;;;;;4972955;28;20091;-53
2023/05/23 04:18:40;;;;;;;29.33;9.93;;;21.70;84.70;;;;;;4982973;28;20050;-53
2023/05/23 04:21:05;;;;;;;31.48;9.70;;;21.70;84.80;;;;;;4984858;28;20033;-53
2023/05/23 04:23:31;;;;;;;26.33;10.23;;;21.70;84.80;;;;;;4986489;28;20035;-53
2023/05/23 04:25:56;;;;;;;32.70;9.50;;;21.70;84.80;;;;;;4984102;28;20039;-53
2023/05/23 04:28:22;;;;;;;23.15;9.25;;;21.70;84.80;;;;;;5017010;28;20460;-52
2023/05/23 04:30:48;;;;;;;27.75;9.88;;;21.70;84.90;;;;;;4985812;28;20038;-53
2023/05/23 04:33:14;;;;;;;22.90;9.65;;;21.70;85.00;;;;;;4984559;28;20472;-53
2023/05/23 04:35:39;;;;;;;20.65;9.07;;;21.60;84.90;;;;;;4984338;28;20061;-53
2023/05/23 04:38:05;;;;;;;24.00;9.48;;;21.60;84.90;;;;;;5000450;28;20037;-53
2023/05/23 04:40:31;;;;;;;31.83;9.65;;;21.60;84.90;;;;;;5017306;28;20053;-53
2023/05/23 04:42:56;;;;;;;19.33;8.30;;;21.60;85.00;;;;;;4985280;28;20058;-53
2023/05/23 04:45:22;;;;;;;18.95;9.32;;;21.60;85.00;;;;;;4984490;28;20109;-53
2023/05/23 04:47:47;;;;;;;22.83;9.73;;;21.60;85.10;;;;;;4983836;28;20128;-53
2023/05/23 04:50:13;;;;;;;21.63;8.90;;;21.60;85.10;;;;;;4984517;28;20026;-53
2023/05/23 04:52:39;;;;;;;19.40;7.85;;;21.60;85.20;;;;;;4984731;28;20030;-53
2023/05/23 04:55:05;;;;;;;25.00;9.32;;;21.60;85.30;;;;;;4984268;28;20074;-53
2023/05/23 04:57:31;;;;;;;22.00;8.98;;;21.60;85.30;;;;;;4985585;28;20035;-53
2023/05/23 04:59:56;;;;;;;24.30;8.77;;;21.60;85.30;;;;;;4984073;28;20049;-53
2023/05/23 05:02:22;;;;;;;21.40;9.27;;;21.60;85.40;;;;;;4984891;28;20062;-53
2023/05/23 05:04:48;;;;;;;14.88;8.15;;;21.60;85.40;;;;;;4984214;28;20026;-53
2023/05/23 05:07:13;;;;;;;24.20;8.45;;;21.60;85.50;;;;;;4984765;28;20034;-53
2023/05/23 05:09:39;;;;;;;17.67;8.55;;;21.50;85.50;;;;;;4996972;28;20074;-53
2023/05/23 05:12:05;;;;;;;18.80;8.45;;;21.50;85.60;;;;;;5006416;28;20058;-53
2023/05/23 05:14:30;;;;;;;24.10;8.70;;;21.50;85.50;;;;;;4984544;28;20027;-53
2023/05/23 05:16:56;;;;;;;21.38;8.38;;;21.50;85.50;;;;;;4985369;28;20058;-55
2023/05/23 05:19:23;;;;;;;17.42;8.32;;;21.50;85.50;;;;;;4983289;28;20057;-53
2023/05/23 05:21:48;;;;;;;18.05;8.25;;;21.50;85.60;;;;;;4983563;28;20456;-53
2023/05/23 05:24:14;;;;;;;12.02;7.97;;;21.50;85.70;;;;;;4985406;28;20035;-53
2023/05/23 05:26:40;;;;;;;13.50;7.82;;;21.50;85.70;;;;;;4988502;28;20038;-53
2023/05/23 05:29:05;;;;;;;23.95;8.32;;;21.50;85.70;;;;;;4987879;28;20081;-53
2023/05/23 05:31:31;;;;;;;16.23;7.88;;;21.50;85.60;;;;;;4988878;28;20050;-53
2023/05/23 05:33:57;;;;;;;17.85;7.57;;;21.50;85.60;;;;;;4986881;28;20026;-53
2023/05/23 05:36:22;;;;;;;16.02;7.85;;;21.50;85.50;;;;;;4987420;28;20030;-53
2023/05/23 05:38:48;;;;;;;15.60;7.80;;;21.50;85.50;;;;;;4975885;28;20472;-53
2023/05/23 05:41:13;;;;;;;14.05;7.47;;;21.50;85.40;;;;;;4973293;28;20533;-53
2023/05/23 05:43:39;;;;;;;12.90;7.10;;;21.50;86.10;;;;;;4987842;28;20063;-53
2023/05/23 05:46:04;;;;;;;17.85;7.97;;;21.50;85.50;;;;;;4987291;28;20047;-53
2023/05/23 05:48:30;;;;;;;15.00;7.10;;;21.50;85.60;;;;;;5003045;28;20034;-53
2023/05/23 05:50:55;;;;;;;13.23;7.78;;;21.50;86.10;;;;;;4987552;28;20019;-53
2023/05/23 05:53:21;;;;;;;12.75;7.20;;;21.50;86.40;;;;;;4988369;28;20031;-53
2023/05/23 05:55:47;;;;;;;14.52;7.55;;;21.40;86.70;;;;;;4987615;28;20220;-55
2023/05/23 05:58:12;;;;;;;12.05;7.60;;;21.40;87.10;;;;;;4967831;28;20050;-56
2023/05/23 06:00:41;;;;;;;11.05;7.72;;;21.30;87.50;;;;;;4981053;28;20193;-55
2023/05/23 06:03:10;;;;;;;8.85;7.45;;;21.30;87.80;;;;;;4988316;28;20043;-55
2023/05/23 06:05:36;;;;;;;8.63;7.30;;;21.30;88.10;;;;;;4987023;28;20027;-53
2023/05/23 06:08:02;;;;;;;7.85;7.10;;;21.20;88.20;;;;;;4987187;28;20050;-53
2023/05/23 06:10:27;;;;;;;9.60;7.30;;;21.20;88.30;;;;;;4987032;28;20046;-53
2023/05/23 06:12:53;;;;;;;10.18;7.18;;;21.10;88.50;;;;;;4987826;28;20027;-53
2023/05/23 06:15:19;;;;;;;8.43;7.47;;;21.10;88.60;;;;;;4986217;28;20019;-53
2023/05/23 06:17:44;;;;;;;10.30;6.93;;;21.10;88.50;;;;;;4987180;28;20027;-53
2023/05/23 06:20:11;;;;;;;9.10;6.82;;;21.10;88.60;;;;;;4987281;28;20459;-53
2023/05/23 06:22:36;;;;;;;9.52;7.07;;;21.10;88.70;;;;;;4986022;28;20098;-53
2023/05/23 06:25:02;;;;;;;10.18;7.68;;;21.10;88.60;;;;;;4987164;28;20066;-53
2023/05/23 06:27:27;;;;;;;10.82;7.40;;;21.10;88.60;;;;;;4985335;28;20043;-53
2023/05/23 06:29:53;;;;;;;16.27;8.07;;;21.10;88.70;;;;;;4989840;28;20443;-53
2023/05/23 06:32:19;;;;;;;15.10;8.18;;;21.10;88.80;;;;;;4993009;28;20035;-53
2023/05/23 06:34:44;;;;;;;13.18;7.78;;;21.10;88.80;;;;;;4983477;28;20388;-53
2023/05/23 06:37:10;;;;;;;11.60;7.47;;;21.10;88.80;;;;;;4987256;28;20373;-52
2023/05/23 06:39:35;;;;;;;11.05;7.68;;;21.10;88.90;;;;;;4983811;28;20038;-53
2023/05/23 06:42:01;;;;;;;9.60;7.68;;;21.10;88.50;;;;;;4976160;28;20034;-53
2023/05/23 06:44:26;;;;;;;13.50;7.80;;;21.20;88.60;;;;;;4986367;28;20069;-53
2023/05/23 06:46:56;;;;;;;11.48;7.07;;;21.20;88.60;;;;;;4985646;28;20049;-52
2023/05/23 06:49:24;;;;;;;14.07;7.65;;;21.20;88.50;;;;;;4985970;28;20173;-53
2023/05/23 06:51:50;;;;;;;10.20;7.53;;;21.20;88.50;;;;;;4985433;28;20034;-53
2023/05/23 06:54:16;;;;;;;9.35;7.47;;;21.20;88.40;;;;;;4986220;28;20030;-53
2023/05/23 06:56:42;;;;;;;9.23;8.30;;;21.20;88.50;;;;;;4984088;28;20082;-53
2023/05/23 06:59:07;;;;;;;11.60;8.23;;;21.20;88.70;;;;;;4982576;28;20027;-53
2023/05/23 07:01:33;;;;;;;12.43;8.25;;;21.20;88.80;;;;;;4983942;28;20045;-53
2023/05/23 07:03:58;;;;;;;11.77;7.95;;;21.20;88.90;;;;;;4985437;28;20042;-53
2023/05/23 07:06:26;;;;;;;9.60;7.43;;;21.20;88.80;;;;;;4982257;28;20027;-53
2023/05/23 07:08:52;;;;;;;11.23;7.75;;;21.20;88.60;;;;;;4982755;28;20034;-53
2023/05/23 07:11:17;;;;;;;9.98;7.93;;;21.20;88.50;;;;;;4982337;28;20475;-53
2023/05/23 07:13:43;;;;;;;13.45;8.50;;;21.20;88.30;;;;;;4985480;28;20091;-53
2023/05/23 07:16:08;;;;;;;14.02;8.60;;;21.20;88.30;;;;;;4978307;28;20023;-53
2023/05/23 07:18:34;;;;;;;12.85;8.50;;;21.20;88.20;;;;;;4981551;28;20027;-53
2023/05/23 07:20:59;;;;;;;12.40;7.97;;;21.20;88.30;;;;;;4981042;28;20031;-53
2023/05/23 07:23:25;;;;;;;19.83;8.73;;;21.20;88.30;;;;;;4984457;28;20061;-53
2023/05/23 07:25:51;;;;;;;19.15;8.90;;;21.20;88.50;;;;;;4983108;28;20058;-53
2023/05/23 07:28:16;;;;;;;20.25;9.18;;;21.20;88.50;;;;;;4984719;28;20023;-53
2023/05/23 07:30:42;;;;;;;13.75;9.23;;;21.20;88.40;;;;;;4972521;28;20091;-53
2023/05/23 07:33:07;;;;;;;15.70;9.20;;;21.20;88.30;;;;;;4983261;28;20432;-53
2023/05/23 07:35:33;;;;;;;50.33;12.27;;;21.20;88.20;;;;;;4984298;28;20031;-53
2023/05/23 07:37:58;;;;;;;57.40;13.52;;;21.30;88.20;;;;;;4984540;28;20058;-53
2023/05/23 07:40:24;;;;;;;44.72;11.82;;;21.30;88.20;;;;;;4985139;28;20042;-52
2023/05/23 07:42:49;;;;;;;63.22;15.68;;;21.30;88.20;;;;;;4982606;28;20118;-53
2023/05/23 07:45:15;;;;;;;65.57;15.13;;;21.30;88.20;;;;;;4981376;28;20019;-52
2023/05/23 07:47:41;;;;;;;54.22;12.95;;;21.30;88.40;;;;;;4982606;28;20030;-53
2023/05/23 07:50:08;;;;;;;28.70;11.13;;;21.30;88.40;;;;;;4984470;28;20027;-53
2023/05/23 07:52:34;;;;;;;41.38;12.20;;;21.30;88.30;;;;;;4987881;28;20085;-53
2023/05/23 07:54:59;;;;;;;51.22;13.88;;;21.30;88.40;;;;;;4982561;28;20027;-53
2023/05/23 07:57:25;;;;;;;39.83;12.20;;;21.30;88.50;;;;;;4985078;28;20023;-54
2023/05/23 07:59:51;;;;;;;24.92;11.55;;;21.30;88.50;;;;;;4983670;28;20038;-52
2023/05/23 08:02:17;;;;;;;26.80;10.48;;;21.30;88.40;;;;;;4983360;28;20042;-53
2023/05/23 08:04:44;;;;;;;40.90;13.63;;;21.40;88.30;;;;;;4983368;28;20041;-54
2023/05/23 08:07:10;;;;;;;34.95;10.77;;;21.40;88.20;;;;;;4982246;28;20042;-53
2023/05/23 08:09:36;;;;;;;31.30;10.95;;;21.40;88.00;;;;;;4981476;28;20046;-53
2023/05/23 08:12:02;;;;;;;37.95;11.75;;;21.40;88.00;;;;;;4981327;28;20031;-53
2023/05/23 08:14:27;;;;;;;27.90;11.35;;;21.40;87.80;;;;;;4965328;28;20061;-54
2023/05/23 08:16:53;;;;;;;30.08;10.50;;;21.50;87.70;;;;;;4983143;28;20038;-54
2023/05/23 08:19:18;;;;;;;32.80;11.98;;;21.50;87.60;;;;;;4982979;28;20046;-53
2023/05/23 08:21:44;;;;;;;35.88;11.63;;;21.50;87.60;;;;;;4983297;28;20035;-53
2023/05/23 08:24:11;;;;;;;18.80;10.77;;;21.50;87.60;;;;;;4983900;28;20435;-54
2023/05/23 08:26:37;;;;;;;14.50;10.52;;;21.50;87.70;;;;;;4982274;28;20243;-53
2023/05/23 08:29:03;;;;;;;23.65;11.65;;;21.50;87.70;;;;;;4982611;28;20050;-53
2023/05/23 08:31:29;;;;;;;24.45;11.65;;;21.50;87.70;;;;;;4977007;28;20031;-53
2023/05/23 08:33:54;;;;;;;22.33;10.95;;;21.50;87.60;;;;;;4981545;28;20053;-54
2023/05/23 08:36:20;;;;;;;23.17;12.00;;;21.50;87.40;;;;;;4967313;28;20043;-54
2023/05/23 08:38:45;;;;;;;20.67;11.65;;;21.50;87.10;;;;;;4981100;28;20030;-51
2023/05/23 08:41:17;;;;;;;24.52;12.13;;;21.60;87.10;;;;;;4981967;28;20086;-53
2023/05/23 08:43:43;;;;;;;26.65;11.73;;;21.60;87.00;;;;;;4982397;28;20054;-53
2023/05/23 08:46:08;;;;;;;24.73;11.80;;;21.60;86.90;;;;;;4971626;28;20361;-53
2023/05/23 08:48:34;;;;;;;24.55;12.00;;;21.60;86.90;;;;;;4983372;28;20081;-51
2023/05/23 08:51:00;;;;;;;20.52;11.73;;;21.60;86.80;;;;;;4979998;28;20031;-54
2023/05/23 08:53:26;;;;;;;20.58;11.70;;;21.70;86.80;;;;;;4981790;28;20110;-53
2023/05/23 08:55:53;;;;;;;17.48;11.63;;;21.60;86.60;;;;;;4979555;28;20050;-51
2023/05/23 08:58:19;;;;;;;13.23;11.73;;;21.70;86.40;;;;;;4984602;28;20034;-53
2023/05/23 09:00:45;;;;;;;21.13;12.88;;;21.70;86.20;;;;;;4963678;28;20046;-54
2023/05/23 09:03:11;;;;;;;19.40;12.30;;;21.70;86.00;;;;;;4978208;28;20069;-54
2023/05/23 09:05:37;;;;;;;26.83;12.48;;;21.70;85.80;;;;;;4983176;28;20136;-54
2023/05/23 09:08:03;;;;;;;27.23;12.82;;;21.70;85.60;;;;;;4983231;28;20050;-53
2023/05/23 09:10:28;;;;;;;20.45;12.82;;;21.80;85.20;;;;;;4980462;28;20031;-54
2023/05/23 09:12:54;;;;;;;24.35;12.63;;;21.80;85.10;;;;;;4966669;28;20023;-53
2023/05/23 09:15:21;;;;;;;17.17;12.18;;;21.80;85.00;;;;;;4982526;28;20031;-54
2023/05/23 09:17:46;;;;;;;15.23;12.38;;;21.80;84.80;;;;;;4981173;28;20039;-53
2023/05/23 09:20:14;;;;;;;17.48;12.23;;;21.80;84.70;;;;;;4981278;28;20070;-53
2023/05/23 09:22:39;;;;;;;18.25;12.23;;;21.80;84.60;;;;;;4980195;28;20115;-53
2023/05/23 09:25:05;;;;;;;17.08;11.43;;;21.80;84.30;;;;;;4986092;28;20122;-54
2023/05/23 09:27:31;;;;;;;19.42;12.18;;;21.80;83.50;;;;;;4974471;28;20041;-53
2023/05/23 09:29:56;;;;;;;18.00;12.60;;;21.90;83.60;;;;;;4993292;28;20062;-53
2023/05/23 09:32:22;;;;;;;17.80;13.05;;;21.90;83.50;;;;;;4982367;28;20114;-52
2023/05/23 09:34:58;;;;;;;18.27;11.95;;;21.90;83.20;;;;;;4965370;28;20026;-53
2023/05/23 09:37:32;;;;;;;17.00;12.93;;;21.90;82.70;;;;;;4963872;28;20097;-53
2023/05/23 09:39:59;;;;;;;17.23;11.82;;;22.00;82.50;;;;;;4961698;28;20111;-53
2023/05/23 09:42:25;;;;;;;27.92;13.43;;;22.00;82.40;;;;;;4982243;28;20039;-53
2023/05/23 09:44:50;;;;;;;27.48;12.55;;;22.00;82.30;;;;;;4981162;28;20035;-53
2023/05/23 09:47:16;;;;;;;19.48;12.65;;;22.10;82.20;;;;;;4976209;28;20046;-54
2023/05/23 09:49:45;;;;;;;18.17;12.48;;;22.10;82.20;;;;;;5012562;28;20033;-52
2023/05/23 09:52:11;;;;;;;21.02;13.88;;;22.10;82.20;;;;;;4964851;28;20031;-53
2023/05/23 09:54:37;;;;;;;29.75;14.07;;;22.20;82.20;;;;;;4984006;28;20042;-54
2023/05/23 09:57:03;;;;;;;15.50;13.18;;;22.20;82.30;;;;;;4972217;28;20034;-53
2023/05/23 09:59:29;;;;;;;19.95;12.38;;;22.20;82.10;;;;;;4970320;28;20028;-54
2023/05/23 10:01:56;;;;;;;25.42;12.85;;;22.10;82.00;;;;;;4949865;28;20083;-53
2023/05/23 10:04:24;;;;;;;35.25;14.45;;;22.20;81.80;;;;;;4981028;28;20031;-53
2023/05/23 10:06:52;;;;;;;44.20;15.90;;;22.30;81.60;;;;;;4980873;28;20098;-54
2023/05/23 10:09:19;;;;;;;31.63;14.63;;;22.30;81.40;;;;;;4982733;28;20046;-53
2023/05/23 10:11:57;;;;;;;31.40;13.25;;;22.30;80.90;;;;;;4984903;28;20078;-54
2023/05/23 10:14:22;;;;;;;19.98;13.13;;;22.30;80.20;;;;;;4985909;28;20029;-54
2023/05/23 10:17:09;;;;;;;53.33;15.80;;;22.30;80.20;;;;;;4985108;28;20046;-54
2023/05/23 10:19:45;;;;;;;66.68;17.27;;;22.30;80.20;;;;;;4986021;28;20027;-54
2023/05/23 10:22:11;;;;;;;72.85;18.13;;;22.40;80.40;;;;;;4981242;28;20050;-54
2023/05/23 10:24:37;;;;;;;51.17;15.20;;;22.50;80.40;;;;;;4984730;28;20037;-53
2023/05/23 10:27:02;;;;;;;50.00;14.85;;;22.50;80.00;;;;;;4984665;28;20066;-54
2023/05/23 10:29:28;;;;;;;58.97;16.83;;;22.60;79.90;;;;;;4984856;28;20087;-53
2023/05/23 10:31:55;;;;;;;59.20;15.65;;;22.60;79.80;;;;;;4983882;28;20472;-54
2023/05/23 10:34:30;;;;;;;84.18;17.73;;;22.70;79.90;;;;;;4967632;28;20053;-54
2023/05/23 10:37:06;;;;;;;47.42;16.50;;;22.70;79.70;;;;;;4981943;28;20098;-54
2023/05/23 10:39:56;;;;;;;68.47;16.92;;;22.80;79.60;;;;;;4998690;28;20018;-54
2023/05/23 10:42:26;;;;;;;50.67;15.93;;;22.80;79.30;;;;;;4974495;28;20069;-53
2023/05/23 10:44:51;;;;;;;87.05;17.70;;;22.90;78.60;;;;;;4969403;28;20337;-54
2023/05/23 10:47:29;;;;;;;49.15;15.02;;;22.90;78.30;;;;;;4985230;28;20038;-53
2023/05/23 10:49:54;;;;;;;59.60;16.50;;;22.90;77.90;;;;;;4985129;28;20027;-53
2023/05/23 10:52:21;;;;;;;58.63;15.95;;;22.90;78.00;;;;;;4985713;28;20049;-54
2023/05/23 10:54:49;;;;;;;57.65;15.65;;;23.00;78.50;;;;;;4986127;28;20023;-54
2023/05/23 10:57:42;;;;;;;60.08;16.02;;;23.10;78.50;;;;;;4987016;28;20042;-54
2023/05/23 11:00:15;;;;;;;54.60;14.90;;;23.10;78.60;;;;;;4968251;28;20057;-53
2023/05/23 11:02:54;;;;;;;75.30;16.60;;;23.10;78.50;;;;;;4987273;28;20112;-53
2023/05/23 11:05:26;;;;;;;58.53;14.57;;;23.20;78.40;;;;;;4987305;28;20022;-53
2023/05/23 11:08:15;;;;;;;41.17;12.98;;;23.20;78.20;;;;;;4987674;28;20141;-54
2023/05/23 11:10:54;;;;;;;41.05;13.85;;;23.30;77.80;;;;;;4957273;28;20035;-53
2023/05/23 11:13:23;;;;;;;35.17;12.73;;;23.30;77.70;;;;;;4958203;29;20045;-54
2023/05/23 11:15:48;;;;;;;45.42;13.05;;;23.40;77.30;;;;;;4966956;29;20051;-54
2023/05/23 11:18:32;;;;;;;40.47;12.68;;;23.50;77.10;;;;;;4982905;28;20042;-54
2023/05/23 11:20:58;;;;;;;19.05;11.23;;;23.60;76.90;;;;;;4996728;28;20038;-54
2023/05/23 11:23:23;;;;;;;23.05;11.65;;;23.60;76.20;;;;;;4996300;28;20054;-54
2023/05/23 11:25:50;;;;;;;40.83;12.60;;;23.70;75.80;;;;;;4967964;28;20057;-54
2023/05/23 11:28:16;;;;;;;43.65;14.30;;;23.80;75.70;;;;;;4984185;28;20041;-53
2023/05/23 11:30:42;;;;;;;45.25;13.57;;;23.80;75.10;;;;;;4986467;28;20443;-54
2023/05/23 11:33:13;;;;;;;73.53;18.05;;;23.80;74.80;;;;;;4986844;28;20090;-54
2023/05/23 11:35:40;;;;;;;17.65;12.20;;;23.80;75.20;;;;;;4985380;28;20026;-54
2023/05/23 11:38:05;;;;;;;35.55;13.38;;;23.80;74.80;;;;;;4985942;28;20058;-54
2023/05/23 11:40:35;;;;;;;58.00;15.45;;;23.90;74.80;;;;;;4985841;28;20031;-54
2023/05/23 11:43:03;;;;;;;38.50;13.55;;;23.90;74.70;;;;;;4984890;28;20035;-53
2023/05/23 11:45:30;;;;;;;38.20;13.15;;;23.90;74.40;;;;;;4987462;28;20054;-54
2023/05/23 11:47:56;;;;;;;24.23;11.77;;;23.90;74.40;;;;;;4985732;28;20035;-54
2023/05/23 11:50:23;;;;;;;49.50;12.88;;;23.90;74.40;;;;;;4985525;28;20049;-54
2023/05/23 11:52:52;;;;;;;49.80;14.15;;;23.90;74.20;;;;;;4968595;28;20034;-53
2023/05/23 11:55:21;;;;;;;40.08;13.15;;;24.00;74.20;;;;;;4974091;28;20032;-54
2023/05/23 11:57:46;;;;;;;40.53;12.80;;;23.90;74.20;;;;;;4976434;28;20031;-54
2023/05/23 12:00:12;;;;;;;28.02;12.10;;;24.00;74.50;;;;;;4986141;28;20050;-53
2023/05/23 12:02:41;;;;;;;26.90;11.95;;;24.00;74.50;;;;;;4975753;28;20137;-53
2023/05/23 12:05:14;;;;;;;30.17;11.55;;;24.00;74.50;;;;;;5004284;28;20034;-53
2023/05/23 12:07:41;;;;;;;32.95;12.73;;;24.10;74.30;;;;;;4995185;28;20054;-54
2023/05/23 12:10:08;;;;;;;27.75;11.95;;;24.10;74.00;;;;;;4986432;28;20026;-54
2023/05/23 12:12:34;;;;;;;24.38;12.43;;;24.10;74.50;;;;;;4984330;28;20101;-54
2023/05/23 12:14:59;;;;;;;43.17;13.45;;;24.20;74.80;;;;;;4986210;28;20027;-54
2023/05/23 12:17:25;;;;;;;47.65;14.95;;;24.20;74.90;;;;;;4983786;28;20038;-54
2023/05/23 12:19:51;;;;;;;21.42;12.02;;;24.30;75.10;;;;;;4985062;28;20019;-53
2023/05/23 12:22:24;;;;;;;20.27;11.65;;;24.30;75.50;;;;;;4986101;28;20046;-54
2023/05/23 12:24:53;;;;;;;17.77;12.25;;;24.30;76.00;;;;;;4968323;28;20026;-54
2023/05/23 12:27:18;;;;;;;21.00;12.38;;;24.20;76.10;;;;;;4984084;28;20137;-54
2023/05/23 12:29:49;;;;;;;24.80;12.50;;;24.20;76.60;;;;;;4985219;28;20035;-53
2023/05/23 12:32:15;;;;;;;26.05;13.27;;;24.20;77.20;;;;;;4967789;28;20085;-54
2023/05/23 12:34:42;;;;;;;22.85;12.73;;;24.20;77.70;;;;;;4983839;28;20031;-54